USRR 280630Z 29005MPS 9999 FEW014CB M03/M05 Q1018 R25/450239 NOSIG RMK QFE758
QNH:(hPa/inHg/mmHg)1018 / 30.06 / 764
QFE:(hPa/inHg/mmHg)1011 / 29.85 / 758
Temperature-3
Dew Point-5
Visibility> 10000
Weather
Cloud CoverFEW (1400);
Transition Height700 m./2500 ft.
Transition LevelFL40
SQUAWK